sensor_id;sensor_type;location;lat;lon;timestamp;P1;durP1;ratioP1;P2;durP2;ratioP2
21636;SDS011;10980;49.596;6.142;2023-03-11T00:01:19;3.23;;;1.30;;
21636;SDS011;10980;49.596;6.142;2023-03-11T00:04:41;8.73;;;1.30;;
21636;SDS011;10980;49.596;6.142;2023-03-11T00:08:04;8.83;;;1.43;;
21636;SDS011;10980;49.596;6.142;2023-03-11T00:11:29;4.13;;;1.00;;
21636;SDS011;10980;49.596;6.142;2023-03-11T00:14:51;6.20;;;1.67;;
21636;SDS011;10980;49.596;6.142;2023-03-11T00:18:13;2.63;;;1.30;;
21636;SDS011;10980;49.596;6.142;2023-03-11T00:21:35;8.77;;;1.13;;
21636;SDS011;10980;49.596;6.142;2023-03-11T00:24:57;4.80;;;1.40;;
21636;SDS011;10980;49.596;6.142;2023-03-11T00:28:20;3.20;;;1.30;;
21636;SDS011;10980;49.596;6.142;2023-03-11T00:31:45;6.93;;;1.50;;
21636;SDS011;10980;49.596;6.142;2023-03-11T00:35:09;4.03;;;1.43;;
21636;SDS011;10980;49.596;6.142;2023-03-11T00:38:35;5.80;;;1.70;;
21636;SDS011;10980;49.596;6.142;2023-03-11T00:41:58;5.20;;;1.50;;
21636;SDS011;10980;49.596;6.142;2023-03-11T00:45:21;2.57;;;1.20;;
21636;SDS011;10980;49.596;6.142;2023-03-11T00:48:50;4.90;;;1.50;;
21636;SDS011;10980;49.596;6.142;2023-03-11T00:52:14;4.33;;;1.43;;
21636;SDS011;10980;49.596;6.142;2023-03-11T00:55:36;3.60;;;1.77;;
21636;SDS011;10980;49.596;6.142;2023-03-11T00:59:03;2.90;;;1.70;;
21636;SDS011;10980;49.596;6.142;2023-03-11T01:02:25;2.20;;;1.23;;
21636;SDS011;10980;49.596;6.142;2023-03-11T01:05:50;8.33;;;1.80;;
21636;SDS011;10980;49.596;6.142;2023-03-11T01:09:12;2.43;;;1.53;;
21636;SDS011;10980;49.596;6.142;2023-03-11T01:12:36;11.00;;;1.70;;
21636;SDS011;10980;49.596;6.142;2023-03-11T01:15:59;7.33;;;1.87;;
21636;SDS011;10980;49.596;6.142;2023-03-11T01:19:22;5.03;;;1.47;;
21636;SDS011;10980;49.596;6.142;2023-03-11T01:22:44;5.03;;;1.50;;
21636;SDS011;10980;49.596;6.142;2023-03-11T01:26:06;5.70;;;1.40;;
21636;SDS011;10980;49.596;6.142;2023-03-11T01:29:28;6.90;;;1.53;;
21636;SDS011;10980;49.596;6.142;2023-03-11T01:32:50;7.43;;;1.53;;
21636;SDS011;10980;49.596;6.142;2023-03-11T01:36:15;2.20;;;1.20;;
21636;SDS011;10980;49.596;6.142;2023-03-11T01:39:38;1.73;;;1.30;;
21636;SDS011;10980;49.596;6.142;2023-03-11T01:43:00;4.97;;;1.63;;
21636;SDS011;10980;49.596;6.142;2023-03-11T01:46:29;3.63;;;1.17;;
21636;SDS011;10980;49.596;6.142;2023-03-11T01:49:57;3.43;;;1.37;;
21636;SDS011;10980;49.596;6.142;2023-03-11T01:53:21;4.33;;;1.43;;
21636;SDS011;10980;49.596;6.142;2023-03-11T01:56:45;7.03;;;1.50;;
21636;SDS011;10980;49.596;6.142;2023-03-11T02:00:11;5.00;;;1.60;;
21636;SDS011;10980;49.596;6.142;2023-03-11T02:03:38;3.40;;;1.90;;
21636;SDS011;10980;49.596;6.142;2023-03-11T02:07:02;4.10;;;1.30;;
21636;SDS011;10980;49.596;6.142;2023-03-11T02:10:29;6.23;;;1.97;;
21636;SDS011;10980;49.596;6.142;2023-03-11T02:13:52;4.37;;;1.60;;
21636;SDS011;10980;49.596;6.142;2023-03-11T02:17:21;6.27;;;1.40;;
21636;SDS011;10980;49.596;6.142;2023-03-11T02:24:56;2.87;;;1.37;;
21636;SDS011;10980;49.596;6.142;2023-03-11T02:28:34;2.97;;;1.50;;
21636;SDS011;10980;49.596;6.142;2023-03-11T02:32:00;8.67;;;1.20;;
21636;SDS011;10980;49.596;6.142;2023-03-11T02:35:28;4.23;;;2.13;;
21636;SDS011;10980;49.596;6.142;2023-03-11T02:38:52;6.50;;;1.67;;
21636;SDS011;10980;49.596;6.142;2023-03-11T02:45:47;3.83;;;1.57;;
21636;SDS011;10980;49.596;6.142;2023-03-11T02:49:10;12.83;;;1.53;;
21636;SDS011;10980;49.596;6.142;2023-03-11T02:52:33;4.87;;;1.60;;
21636;SDS011;10980;49.596;6.142;2023-03-11T02:55:56;6.20;;;1.67;;
21636;SDS011;10980;49.596;6.142;2023-03-11T02:59:18;3.30;;;1.50;;
21636;SDS011;10980;49.596;6.142;2023-03-11T03:02:44;6.53;;;1.80;;
21636;SDS011;10980;49.596;6.142;2023-03-11T03:06:07;4.50;;;1.60;;
21636;SDS011;10980;49.596;6.142;2023-03-11T03:09:30;3.30;;;1.20;;
21636;SDS011;10980;49.596;6.142;2023-03-11T03:12:53;6.67;;;1.60;;
21636;SDS011;10980;49.596;6.142;2023-03-11T03:16:17;6.50;;;1.77;;
21636;SDS011;10980;49.596;6.142;2023-03-11T03:19:41;6.30;;;1.80;;
21636;SDS011;10980;49.596;6.142;2023-03-11T03:23:03;3.77;;;1.40;;
21636;SDS011;10980;49.596;6.142;2023-03-11T03:26:26;5.83;;;1.67;;
21636;SDS011;10980;49.596;6.142;2023-03-11T03:29:48;16.90;;;3.73;;
21636;SDS011;10980;49.596;6.142;2023-03-11T03:33:10;3.90;;;1.50;;
21636;SDS011;10980;49.596;6.142;2023-03-11T03:36:34;3.90;;;1.70;;
21636;SDS011;10980;49.596;6.142;2023-03-11T03:39:58;5.10;;;1.60;;
21636;SDS011;10980;49.596;6.142;2023-03-11T03:43:20;2.63;;;1.40;;
21636;SDS011;10980;49.596;6.142;2023-03-11T03:46:43;4.83;;;1.60;;
21636;SDS011;10980;49.596;6.142;2023-03-11T03:50:06;8.20;;;1.80;;
21636;SDS011;10980;49.596;6.142;2023-03-11T03:53:34;6.97;;;1.60;;
21636;SDS011;10980;49.596;6.142;2023-03-11T03:56:57;5.83;;;1.90;;
21636;SDS011;10980;49.596;6.142;2023-03-11T04:00:19;4.17;;;1.57;;
21636;SDS011;10980;49.596;6.142;2023-03-11T04:03:48;8.27;;;1.90;;
21636;SDS011;10980;49.596;6.142;2023-03-11T04:07:10;10.17;;;2.77;;
21636;SDS011;10980;49.596;6.142;2023-03-11T04:10:32;5.90;;;1.50;;
21636;SDS011;10980;49.596;6.142;2023-03-11T04:13:54;4.33;;;1.70;;
21636;SDS011;10980;49.596;6.142;2023-03-11T04:17:16;4.23;;;1.63;;
21636;SDS011;10980;49.596;6.142;2023-03-11T04:20:38;9.30;;;1.80;;
21636;SDS011;10980;49.596;6.142;2023-03-11T04:24:00;8.07;;;1.97;;
21636;SDS011;10980;49.596;6.142;2023-03-11T04:27:27;2.57;;;1.53;;
21636;SDS011;10980;49.596;6.142;2023-03-11T04:30:49;3.53;;;1.60;;
21636;SDS011;10980;49.596;6.142;2023-03-11T04:34:12;6.13;;;1.87;;
21636;SDS011;10980;49.596;6.142;2023-03-11T04:37:35;5.43;;;1.70;;
21636;SDS011;10980;49.596;6.142;2023-03-11T04:41:01;4.63;;;1.70;;
21636;SDS011;10980;49.596;6.142;2023-03-11T04:44:26;2.53;;;1.30;;
21636;SDS011;10980;49.596;6.142;2023-03-11T04:47:49;4.50;;;2.07;;
21636;SDS011;10980;49.596;6.142;2023-03-11T04:51:12;6.07;;;1.90;;
21636;SDS011;10980;49.596;6.142;2023-03-11T04:54:35;3.93;;;1.70;;
21636;SDS011;10980;49.596;6.142;2023-03-11T04:57:58;5.17;;;2.10;;
21636;SDS011;10980;49.596;6.142;2023-03-11T05:01:20;5.20;;;2.00;;
21636;SDS011;10980;49.596;6.142;2023-03-11T05:04:42;8.73;;;2.10;;
21636;SDS011;10980;49.596;6.142;2023-03-11T05:08:08;3.97;;;1.90;;
21636;SDS011;10980;49.596;6.142;2023-03-11T05:11:30;8.23;;;2.23;;
21636;SDS011;10980;49.596;6.142;2023-03-11T05:14:52;5.80;;;3.10;;
21636;SDS011;10980;49.596;6.142;2023-03-11T05:18:14;7.30;;;2.43;;
21636;SDS011;10980;49.596;6.142;2023-03-11T05:21:37;6.53;;;2.03;;
21636;SDS011;10980;49.596;6.142;2023-03-11T05:24:59;5.47;;;2.30;;
21636;SDS011;10980;49.596;6.142;2023-03-11T05:28:22;6.73;;;2.07;;
21636;SDS011;10980;49.596;6.142;2023-03-11T05:31:46;8.33;;;2.10;;
21636;SDS011;10980;49.596;6.142;2023-03-11T05:35:09;4.37;;;2.10;;
21636;SDS011;10980;49.596;6.142;2023-03-11T05:38:31;7.23;;;2.73;;
21636;SDS011;10980;49.596;6.142;2023-03-11T05:41:53;6.30;;;2.40;;
21636;SDS011;10980;49.596;6.142;2023-03-11T05:45:17;2.70;;;1.90;;
21636;SDS011;10980;49.596;6.142;2023-03-11T05:48:43;6.30;;;2.50;;
21636;SDS011;10980;49.596;6.142;2023-03-11T05:52:06;8.23;;;2.43;;
21636;SDS011;10980;49.596;6.142;2023-03-11T05:55:29;13.90;;;2.40;;
21636;SDS011;10980;49.596;6.142;2023-03-11T05:58:51;8.07;;;1.70;;
21636;SDS011;10980;49.596;6.142;2023-03-11T06:02:14;13.63;;;2.40;;
21636;SDS011;10980;49.596;6.142;2023-03-11T06:05:43;8.63;;;2.60;;
21636;SDS011;10980;49.596;6.142;2023-03-11T06:09:12;5.33;;;2.83;;
21636;SDS011;10980;49.596;6.142;2023-03-11T06:12:38;5.20;;;2.23;;
21636;SDS011;10980;49.596;6.142;2023-03-11T06:16:38;7.40;;;2.47;;
21636;SDS011;10980;49.596;6.142;2023-03-11T06:20:03;6.87;;;2.07;;
21636;SDS011;10980;49.596;6.142;2023-03-11T06:23:27;5.93;;;2.40;;
21636;SDS011;10980;49.596;6.142;2023-03-11T06:26:53;3.80;;;2.27;;
21636;SDS011;10980;49.596;6.142;2023-03-11T06:30:18;6.63;;;2.90;;
21636;SDS011;10980;49.596;6.142;2023-03-11T06:33:54;8.27;;;2.67;;
21636;SDS011;10980;49.596;6.142;2023-03-11T06:37:16;16.37;;;3.67;;
21636;SDS011;10980;49.596;6.142;2023-03-11T06:40:39;11.50;;;3.00;;
21636;SDS011;10980;49.596;6.142;2023-03-11T06:44:01;12.13;;;2.97;;
21636;SDS011;10980;49.596;6.142;2023-03-11T06:47:24;5.13;;;2.57;;
21636;SDS011;10980;49.596;6.142;2023-03-11T06:50:55;7.07;;;3.17;;
21636;SDS011;10980;49.596;6.142;2023-03-11T06:54:19;16.27;;;3.20;;
21636;SDS011;10980;49.596;6.142;2023-03-11T06:57:41;11.93;;;3.20;;
21636;SDS011;10980;49.596;6.142;2023-03-11T07:01:07;11.30;;;2.93;;
21636;SDS011;10980;49.596;6.142;2023-03-11T07:04:37;8.77;;;3.07;;
21636;SDS011;10980;49.596;6.142;2023-03-11T07:07:59;16.03;;;3.57;;
21636;SDS011;10980;49.596;6.142;2023-03-11T07:11:22;9.03;;;2.50;;
21636;SDS011;10980;49.596;6.142;2023-03-11T07:14:55;14.13;;;4.13;;
21636;SDS011;10980;49.596;6.142;2023-03-11T07:18:20;11.77;;;3.37;;
21636;SDS011;10980;49.596;6.142;2023-03-11T07:21:42;9.10;;;3.13;;
21636;SDS011;10980;49.596;6.142;2023-03-11T07:25:04;14.27;;;3.57;;
21636;SDS011;10980;49.596;6.142;2023-03-11T07:28:27;8.90;;;3.83;;
21636;SDS011;10980;49.596;6.142;2023-03-11T07:31:49;15.07;;;4.00;;
21636;SDS011;10980;49.596;6.142;2023-03-11T07:35:11;9.27;;;3.70;;
21636;SDS011;10980;49.596;6.142;2023-03-11T07:38:33;9.33;;;4.27;;
21636;SDS011;10980;49.596;6.142;2023-03-11T07:41:55;11.57;;;3.50;;
21636;SDS011;10980;49.596;6.142;2023-03-11T07:45:27;11.70;;;3.80;;
21636;SDS011;10980;49.596;6.142;2023-03-11T07:48:50;11.10;;;3.97;;
21636;SDS011;10980;49.596;6.142;2023-03-11T07:52:12;14.70;;;4.57;;
21636;SDS011;10980;49.596;6.142;2023-03-11T07:55:34;13.00;;;4.07;;
21636;SDS011;10980;49.596;6.142;2023-03-11T07:58:57;10.57;;;4.00;;
21636;SDS011;10980;49.596;6.142;2023-03-11T08:02:21;12.13;;;3.57;;
21636;SDS011;10980;49.596;6.142;2023-03-11T08:05:43;10.10;;;4.07;;
21636;SDS011;10980;49.596;6.142;2023-03-11T08:09:06;15.87;;;3.80;;
21636;SDS011;10980;49.596;6.142;2023-03-11T08:12:29;17.33;;;3.63;;
21636;SDS011;10980;49.596;6.142;2023-03-11T08:15:51;8.50;;;3.20;;
21636;SDS011;10980;49.596;6.142;2023-03-11T08:19:13;8.57;;;3.13;;
21636;SDS011;10980;49.596;6.142;2023-03-11T08:22:34;5.33;;;3.43;;
21636;SDS011;10980;49.596;6.142;2023-03-11T08:26:02;8.60;;;3.40;;
21636;SDS011;10980;49.596;6.142;2023-03-11T08:29:33;12.20;;;2.90;;
21636;SDS011;10980;49.596;6.142;2023-03-11T08:32:55;12.70;;;3.10;;
21636;SDS011;10980;49.596;6.142;2023-03-11T08:36:17;11.20;;;2.70;;
21636;SDS011;10980;49.596;6.142;2023-03-11T08:39:40;7.63;;;2.73;;
21636;SDS011;10980;49.596;6.142;2023-03-11T08:43:03;8.60;;;2.60;;
21636;SDS011;10980;49.596;6.142;2023-03-11T08:46:26;8.23;;;3.30;;
21636;SDS011;10980;49.596;6.142;2023-03-11T08:49:51;10.83;;;3.10;;
21636;SDS011;10980;49.596;6.142;2023-03-11T08:53:13;9.50;;;1.70;;
21636;SDS011;10980;49.596;6.142;2023-03-11T08:56:36;8.00;;;1.40;;
21636;SDS011;10980;49.596;6.142;2023-03-11T08:59:59;9.20;;;2.10;;
21636;SDS011;10980;49.596;6.142;2023-03-11T09:03:23;4.53;;;1.40;;
21636;SDS011;10980;49.596;6.142;2023-03-11T09:06:46;3.33;;;1.37;;
21636;SDS011;10980;49.596;6.142;2023-03-11T09:10:12;5.70;;;1.73;;
21636;SDS011;10980;49.596;6.142;2023-03-11T09:13:38;82.57;;;40.57;;
21636;SDS011;10980;49.596;6.142;2023-03-11T09:17:01;329.07;;;222.80;;
21636;SDS011;10980;49.596;6.142;2023-03-11T09:20:24;30.20;;;15.43;;
21636;SDS011;10980;49.596;6.142;2023-03-11T09:23:47;61.47;;;29.03;;
21636;SDS011;10980;49.596;6.142;2023-03-11T09:27:09;13.60;;;7.33;;
21636;SDS011;10980;49.596;6.142;2023-03-11T09:30:33;55.53;;;35.37;;
21636;SDS011;10980;49.596;6.142;2023-03-11T09:33:57;14.43;;;9.63;;
21636;SDS011;10980;49.596;6.142;2023-03-11T09:37:21;6.80;;;1.43;;
21636;SDS011;10980;49.596;6.142;2023-03-11T09:44:51;13.87;;;1.50;;
21636;SDS011;10980;49.596;6.142;2023-03-11T09:55:51;6.17;;;1.07;;
21636;SDS011;10980;49.596;6.142;2023-03-11T09:59:22;6.60;;;1.30;;
21636;SDS011;10980;49.596;6.142;2023-03-11T10:02:52;3.53;;;1.00;;
21636;SDS011;10980;49.596;6.142;2023-03-11T10:06:16;3.27;;;1.30;;
21636;SDS011;10980;49.596;6.142;2023-03-11T10:09:50;4.97;;;0.80;;
21636;SDS011;10980;49.596;6.142;2023-03-11T10:17:00;7.47;;;1.30;;
21636;SDS011;10980;49.596;6.142;2023-03-11T10:20:51;4.20;;;1.33;;
21636;SDS011;10980;49.596;6.142;2023-03-11T10:28:35;3.37;;;1.23;;
21636;SDS011;10980;49.596;6.142;2023-03-11T10:36:19;6.10;;;1.33;;
21636;SDS011;10980;49.596;6.142;2023-03-11T10:39:46;5.20;;;1.07;;
21636;SDS011;10980;49.596;6.142;2023-03-11T10:43:10;7.30;;;1.20;;
21636;SDS011;10980;49.596;6.142;2023-03-11T10:46:37;6.57;;;1.40;;
21636;SDS011;10980;49.596;6.142;2023-03-11T10:49:59;3.77;;;1.03;;
21636;SDS011;10980;49.596;6.142;2023-03-11T10:53:21;6.13;;;1.57;;
21636;SDS011;10980;49.596;6.142;2023-03-11T10:56:44;7.50;;;1.40;;
21636;SDS011;10980;49.596;6.142;2023-03-11T11:00:27;7.70;;;1.33;;
21636;SDS011;10980;49.596;6.142;2023-03-11T11:03:52;7.93;;;1.43;;
21636;SDS011;10980;49.596;6.142;2023-03-11T11:07:19;2.63;;;0.90;;
21636;SDS011;10980;49.596;6.142;2023-03-11T11:14:22;10.17;;;1.37;;
21636;SDS011;10980;49.596;6.142;2023-03-11T11:17:45;5.30;;;1.30;;
21636;SDS011;10980;49.596;6.142;2023-03-11T11:21:53;7.33;;;1.17;;
21636;SDS011;10980;49.596;6.142;2023-03-11T11:25:28;3.27;;;1.10;;
21636;SDS011;10980;49.596;6.142;2023-03-11T11:29:06;5.63;;;1.07;;
21636;SDS011;10980;49.596;6.142;2023-03-11T11:32:31;3.10;;;1.33;;
21636;SDS011;10980;49.596;6.142;2023-03-11T11:35:54;7.13;;;1.20;;
21636;SDS011;10980;49.596;6.142;2023-03-11T11:39:20;4.30;;;1.30;;
21636;SDS011;10980;49.596;6.142;2023-03-11T11:42:53;2.07;;;0.80;;
21636;SDS011;10980;49.596;6.142;2023-03-11T11:46:48;5.60;;;1.23;;
21636;SDS011;10980;49.596;6.142;2023-03-11T11:50:17;2.23;;;1.00;;
21636;SDS011;10980;49.596;6.142;2023-03-11T11:54:00;4.70;;;1.40;;
21636;SDS011;10980;49.596;6.142;2023-03-11T11:57:59;1.50;;;0.83;;
21636;SDS011;10980;49.596;6.142;2023-03-11T12:01:28;3.77;;;1.30;;
21636;SDS011;10980;49.596;6.142;2023-03-11T12:05:22;5.70;;;1.20;;
21636;SDS011;10980;49.596;6.142;2023-03-11T12:16:56;6.80;;;1.50;;
21636;SDS011;10980;49.596;6.142;2023-03-11T12:20:38;3.90;;;1.30;;
21636;SDS011;10980;49.596;6.142;2023-03-11T12:32:18;2.23;;;1.40;;
21636;SDS011;10980;49.596;6.142;2023-03-11T12:36:02;7.53;;;1.33;;
21636;SDS011;10980;49.596;6.142;2023-03-11T12:42:55;5.40;;;1.10;;
21636;SDS011;10980;49.596;6.142;2023-03-11T12:46:17;9.50;;;1.20;;
21636;SDS011;10980;49.596;6.142;2023-03-11T12:49:40;2.87;;;1.20;;
21636;SDS011;10980;49.596;6.142;2023-03-11T12:53:08;2.83;;;1.10;;
21636;SDS011;10980;49.596;6.142;2023-03-11T12:56:44;5.87;;;1.47;;
21636;SDS011;10980;49.596;6.142;2023-03-11T13:03:50;7.90;;;1.70;;
21636;SDS011;10980;49.596;6.142;2023-03-11T13:11:46;5.60;;;2.00;;
21636;SDS011;10980;49.596;6.142;2023-03-11T13:15:23;8.73;;;1.60;;
21636;SDS011;10980;49.596;6.142;2023-03-11T13:18:51;3.30;;;1.50;;
21636;SDS011;10980;49.596;6.142;2023-03-11T13:26:28;2.17;;;1.10;;
21636;SDS011;10980;49.596;6.142;2023-03-11T13:37:43;4.97;;;2.10;;
21636;SDS011;10980;49.596;6.142;2023-03-11T13:41:33;5.80;;;1.63;;
21636;SDS011;10980;49.596;6.142;2023-03-11T13:44:57;2.43;;;1.30;;
21636;SDS011;10980;49.596;6.142;2023-03-11T13:48:22;6.37;;;1.70;;
21636;SDS011;10980;49.596;6.142;2023-03-11T13:51:47;5.90;;;1.30;;
21636;SDS011;10980;49.596;6.142;2023-03-11T13:55:46;4.57;;;1.60;;
21636;SDS011;10980;49.596;6.142;2023-03-11T13:59:31;3.00;;;1.60;;
21636;SDS011;10980;49.596;6.142;2023-03-11T14:02:57;9.27;;;1.87;;
21636;SDS011;10980;49.596;6.142;2023-03-11T14:06:23;4.60;;;1.60;;
21636;SDS011;10980;49.596;6.142;2023-03-11T14:09:45;7.73;;;1.33;;
21636;SDS011;10980;49.596;6.142;2023-03-11T14:13:14;8.20;;;1.63;;
21636;SDS011;10980;49.596;6.142;2023-03-11T14:16:38;5.43;;;0.97;;
21636;SDS011;10980;49.596;6.142;2023-03-11T14:20:05;6.63;;;1.30;;
21636;SDS011;10980;49.596;6.142;2023-03-11T14:23:44;4.30;;;1.27;;
21636;SDS011;10980;49.596;6.142;2023-03-11T14:27:12;3.73;;;1.40;;
21636;SDS011;10980;49.596;6.142;2023-03-11T14:30:37;2.90;;;1.27;;
21636;SDS011;10980;49.596;6.142;2023-03-11T14:34:02;5.70;;;1.40;;
21636;SDS011;10980;49.596;6.142;2023-03-11T14:37:36;3.53;;;1.57;;
21636;SDS011;10980;49.596;6.142;2023-03-11T14:41:00;2.67;;;1.20;;
21636;SDS011;10980;49.596;6.142;2023-03-11T14:44:26;5.28;;;1.40;;
21636;SDS011;10980;49.596;6.142;2023-03-11T14:47:54;4.23;;;1.90;;
21636;SDS011;10980;49.596;6.142;2023-03-11T14:51:35;4.47;;;1.53;;
21636;SDS011;10980;49.596;6.142;2023-03-11T14:54:59;3.53;;;1.30;;
21636;SDS011;10980;49.596;6.142;2023-03-11T15:01:53;5.47;;;1.50;;
21636;SDS011;10980;49.596;6.142;2023-03-11T15:05:27;4.10;;;1.37;;
21636;SDS011;10980;49.596;6.142;2023-03-11T15:09:21;4.10;;;1.40;;
21636;SDS011;10980;49.596;6.142;2023-03-11T15:12:44;4.00;;;1.10;;
21636;SDS011;10980;49.596;6.142;2023-03-11T15:16:07;5.53;;;1.67;;
21636;SDS011;10980;49.596;6.142;2023-03-11T15:19:54;4.30;;;2.60;;
21636;SDS011;10980;49.596;6.142;2023-03-11T15:23:19;7.17;;;1.70;;
21636;SDS011;10980;49.596;6.142;2023-03-11T15:26:51;4.90;;;1.33;;
21636;SDS011;10980;49.596;6.142;2023-03-11T15:30:27;3.67;;;1.37;;
21636;SDS011;10980;49.596;6.142;2023-03-11T15:33:51;10.10;;;1.70;;
21636;SDS011;10980;49.596;6.142;2023-03-11T15:37:20;7.93;;;1.43;;
21636;SDS011;10980;49.596;6.142;2023-03-11T15:40:49;5.43;;;1.73;;
21636;SDS011;10980;49.596;6.142;2023-03-11T15:44:29;3.60;;;1.43;;
21636;SDS011;10980;49.596;6.142;2023-03-11T15:48:11;7.53;;;1.43;;
21636;SDS011;10980;49.596;6.142;2023-03-11T15:51:35;2.13;;;1.40;;
21636;SDS011;10980;49.596;6.142;2023-03-11T15:54:57;5.00;;;1.43;;
21636;SDS011;10980;49.596;6.142;2023-03-11T15:58:19;6.33;;;1.30;;
21636;SDS011;10980;49.596;6.142;2023-03-11T16:01:41;5.00;;;1.90;;
21636;SDS011;10980;49.596;6.142;2023-03-11T16:05:05;4.00;;;1.40;;
21636;SDS011;10980;49.596;6.142;2023-03-11T16:08:35;2.13;;;1.23;;
21636;SDS011;10980;49.596;6.142;2023-03-11T16:12:00;3.07;;;1.50;;
21636;SDS011;10980;49.596;6.142;2023-03-11T16:15:30;6.87;;;1.43;;
21636;SDS011;10980;49.596;6.142;2023-03-11T16:19:02;4.33;;;1.33;;
21636;SDS011;10980;49.596;6.142;2023-03-11T16:22:26;2.80;;;1.40;;
21636;SDS011;10980;49.596;6.142;2023-03-11T16:25:57;4.87;;;1.30;;
21636;SDS011;10980;49.596;6.142;2023-03-11T16:29:24;4.53;;;1.33;;
21636;SDS011;10980;49.596;6.142;2023-03-11T16:32:47;3.87;;;1.10;;
21636;SDS011;10980;49.596;6.142;2023-03-11T16:36:11;4.60;;;1.30;;
21636;SDS011;10980;49.596;6.142;2023-03-11T16:39:33;7.77;;;2.23;;
21636;SDS011;10980;49.596;6.142;2023-03-11T16:43:00;7.37;;;1.47;;
21636;SDS011;10980;49.596;6.142;2023-03-11T16:46:33;9.20;;;1.30;;
21636;SDS011;10980;49.596;6.142;2023-03-11T16:49:54;11.00;;;1.63;;
21636;SDS011;10980;49.596;6.142;2023-03-11T16:53:24;3.27;;;1.27;;
21636;SDS011;10980;49.596;6.142;2023-03-11T16:56:52;9.10;;;2.10;;
21636;SDS011;10980;49.596;6.142;2023-03-11T17:03:48;4.00;;;1.70;;
21636;SDS011;10980;49.596;6.142;2023-03-11T17:07:12;4.93;;;1.50;;
21636;SDS011;10980;49.596;6.142;2023-03-11T17:10:34;2.73;;;1.33;;
21636;SDS011;10980;49.596;6.142;2023-03-11T17:14:03;5.00;;;1.07;;
21636;SDS011;10980;49.596;6.142;2023-03-11T17:17:36;8.33;;;2.20;;
21636;SDS011;10980;49.596;6.142;2023-03-11T17:20:58;4.83;;;1.27;;
21636;SDS011;10980;49.596;6.142;2023-03-11T17:24:22;5.63;;;1.90;;
21636;SDS011;10980;49.596;6.142;2023-03-11T17:27:44;5.70;;;1.53;;
21636;SDS011;10980;49.596;6.142;2023-03-11T17:31:15;5.37;;;2.17;;
21636;SDS011;10980;49.596;6.142;2023-03-11T17:34:38;9.67;;;3.23;;
21636;SDS011;10980;49.596;6.142;2023-03-11T17:38:00;8.87;;;3.20;;
21636;SDS011;10980;49.596;6.142;2023-03-11T17:41:22;4.10;;;1.80;;
21636;SDS011;10980;49.596;6.142;2023-03-11T17:44:46;3.20;;;1.60;;
21636;SDS011;10980;49.596;6.142;2023-03-11T17:48:12;5.83;;;1.90;;
21636;SDS011;10980;49.596;6.142;2023-03-11T17:51:35;5.17;;;1.77;;
21636;SDS011;10980;49.596;6.142;2023-03-11T17:54:57;7.03;;;2.73;;
21636;SDS011;10980;49.596;6.142;2023-03-11T17:58:19;6.47;;;2.80;;
21636;SDS011;10980;49.596;6.142;2023-03-11T18:01:40;11.60;;;3.50;;
21636;SDS011;10980;49.596;6.142;2023-03-11T18:08:36;8.27;;;3.47;;
21636;SDS011;10980;49.596;6.142;2023-03-11T18:11:59;8.03;;;2.10;;
21636;SDS011;10980;49.596;6.142;2023-03-11T18:15:22;7.23;;;2.20;;
21636;SDS011;10980;49.596;6.142;2023-03-11T18:18:44;5.33;;;2.10;;
21636;SDS011;10980;49.596;6.142;2023-03-11T18:22:06;3.13;;;1.53;;
21636;SDS011;10980;49.596;6.142;2023-03-11T18:25:28;9.73;;;2.50;;
21636;SDS011;10980;49.596;6.142;2023-03-11T18:28:51;5.83;;;2.70;;
21636;SDS011;10980;49.596;6.142;2023-03-11T18:32:15;12.03;;;3.53;;
21636;SDS011;10980;49.596;6.142;2023-03-11T18:35:37;10.23;;;2.67;;
21636;SDS011;10980;49.596;6.142;2023-03-11T18:38:59;4.93;;;2.57;;
21636;SDS011;10980;49.596;6.142;2023-03-11T18:42:22;8.43;;;2.53;;
21636;SDS011;10980;49.596;6.142;2023-03-11T18:45:44;6.43;;;3.27;;
21636;SDS011;10980;49.596;6.142;2023-03-11T18:49:06;6.93;;;3.50;;
21636;SDS011;10980;49.596;6.142;2023-03-11T18:52:31;3.80;;;2.53;;
21636;SDS011;10980;49.596;6.142;2023-03-11T18:56:00;7.53;;;3.33;;
21636;SDS011;10980;49.596;6.142;2023-03-11T18:59:32;9.77;;;3.50;;
21636;SDS011;10980;49.596;6.142;2023-03-11T19:02:54;9.50;;;4.10;;
21636;SDS011;10980;49.596;6.142;2023-03-11T19:06:16;6.40;;;3.27;;
21636;SDS011;10980;49.596;6.142;2023-03-11T19:09:47;9.63;;;3.03;;
21636;SDS011;10980;49.596;6.142;2023-03-11T19:13:15;9.57;;;3.37;;
21636;SDS011;10980;49.596;6.142;2023-03-11T19:16:41;9.67;;;3.10;;
21636;SDS011;10980;49.596;6.142;2023-03-11T19:20:03;11.13;;;3.37;;
21636;SDS011;10980;49.596;6.142;2023-03-11T19:23:28;484.60;;;445.67;;
21636;SDS011;10980;49.596;6.142;2023-03-11T19:26:51;800.70;;;727.70;;
21636;SDS011;10980;49.596;6.142;2023-03-11T19:30:12;969.40;;;652.03;;
21636;SDS011;10980;49.596;6.142;2023-03-11T19:33:34;590.33;;;289.33;;
21636;SDS011;10980;49.596;6.142;2023-03-11T19:36:56;198.07;;;76.77;;
21636;SDS011;10980;49.596;6.142;2023-03-11T19:40:18;11.53;;;4.13;;
21636;SDS011;10980;49.596;6.142;2023-03-11T19:43:40;11.63;;;3.67;;
21636;SDS011;10980;49.596;6.142;2023-03-11T19:47:02;16.23;;;5.63;;
21636;SDS011;10980;49.596;6.142;2023-03-11T19:50:25;25.23;;;9.23;;
21636;SDS011;10980;49.596;6.142;2023-03-11T19:53:47;12.90;;;5.07;;
21636;SDS011;10980;49.596;6.142;2023-03-11T19:57:08;7.07;;;3.50;;
21636;SDS011;10980;49.596;6.142;2023-03-11T20:00:30;8.63;;;3.30;;
21636;SDS011;10980;49.596;6.142;2023-03-11T20:03:52;10.57;;;4.23;;
21636;SDS011;10980;49.596;6.142;2023-03-11T20:07:14;10.47;;;4.33;;
21636;SDS011;10980;49.596;6.142;2023-03-11T20:10:37;11.53;;;4.23;;
21636;SDS011;10980;49.596;6.142;2023-03-11T20:14:01;9.40;;;3.77;;
21636;SDS011;10980;49.596;6.142;2023-03-11T20:17:23;9.00;;;4.30;;
21636;SDS011;10980;49.596;6.142;2023-03-11T20:20:45;10.17;;;3.80;;
21636;SDS011;10980;49.596;6.142;2023-03-11T20:24:07;8.83;;;3.90;;
21636;SDS011;10980;49.596;6.142;2023-03-11T20:27:30;10.03;;;3.70;;
21636;SDS011;10980;49.596;6.142;2023-03-11T20:30:57;10.60;;;4.17;;
21636;SDS011;10980;49.596;6.142;2023-03-11T20:34:20;13.63;;;3.80;;
21636;SDS011;10980;49.596;6.142;2023-03-11T20:37:42;7.83;;;3.47;;
21636;SDS011;10980;49.596;6.142;2023-03-11T20:41:09;11.87;;;4.00;;
21636;SDS011;10980;49.596;6.142;2023-03-11T20:44:33;10.13;;;3.67;;
21636;SDS011;10980;49.596;6.142;2023-03-11T20:47:55;10.70;;;3.33;;
21636;SDS011;10980;49.596;6.142;2023-03-11T20:51:19;11.30;;;3.57;;
21636;SDS011;10980;49.596;6.142;2023-03-11T20:54:43;10.97;;;3.93;;
21636;SDS011;10980;49.596;6.142;2023-03-11T20:58:06;11.87;;;3.47;;
21636;SDS011;10980;49.596;6.142;2023-03-11T21:01:29;13.10;;;3.07;;
21636;SDS011;10980;49.596;6.142;2023-03-11T21:04:52;9.57;;;4.33;;
21636;SDS011;10980;49.596;6.142;2023-03-11T21:08:18;12.10;;;3.40;;
21636;SDS011;10980;49.596;6.142;2023-03-11T21:11:44;11.33;;;3.83;;
21636;SDS011;10980;49.596;6.142;2023-03-11T21:15:06;13.40;;;3.67;;
21636;SDS011;10980;49.596;6.142;2023-03-11T21:18:29;9.33;;;3.93;;
21636;SDS011;10980;49.596;6.142;2023-03-11T21:21:57;7.80;;;3.70;;
21636;SDS011;10980;49.596;6.142;2023-03-11T21:25:19;9.73;;;4.13;;
21636;SDS011;10980;49.596;6.142;2023-03-11T21:28:41;11.87;;;4.67;;
21636;SDS011;10980;49.596;6.142;2023-03-11T21:32:06;6.27;;;3.83;;
21636;SDS011;10980;49.596;6.142;2023-03-11T21:35:28;10.57;;;4.30;;
21636;SDS011;10980;49.596;6.142;2023-03-11T21:38:50;8.33;;;3.83;;
21636;SDS011;10980;49.596;6.142;2023-03-11T21:42:12;8.20;;;3.50;;
21636;SDS011;10980;49.596;6.142;2023-03-11T21:45:36;12.93;;;5.40;;
21636;SDS011;10980;49.596;6.142;2023-03-11T21:48:58;9.23;;;4.10;;
21636;SDS011;10980;49.596;6.142;2023-03-11T21:52:21;14.40;;;3.80;;
21636;SDS011;10980;49.596;6.142;2023-03-11T21:55:43;9.13;;;3.57;;
21636;SDS011;10980;49.596;6.142;2023-03-11T21:59:09;12.13;;;4.13;;